Time;durP1;ratioP1;P1;durP2;ratioP2;P2;SDS_P1;SDS_P2;PMS_P1;PMS_P2;Temp;Humidity;BMP_temperature;BMP_pressure;BME280_temperature;BME280_humidity;BME280_pressure;Samples;Min_cycle;Max_cycle;Signal;HPM_P1;HPM_P2
2022/05/25 00:03:03;;;;;;;6.90;6.20;;;;;;;15.46;76.93;99671.05;130324;1268;108693;-78
2022/05/25 00:06:10;;;;;;;7.90;7.00;;;;;;;15.47;76.90;99666.42;130352;1268;108765;-78
2022/05/25 00:09:16;;;;;;;8.40;7.50;;;;;;;15.47;77.00;99659.27;130378;1268;108993;-78
2022/05/25 00:12:22;;;;;;;9.40;8.40;;;;;;;15.49;77.14;99657.08;130345;1266;108719;-78
2022/05/25 00:15:28;;;;;;;9.90;8.20;;;;;;;15.51;77.30;99656.96;130352;1267;108998;-78
2022/05/25 00:18:33;;;;;;;9.20;8.10;;;;;;;15.50;77.16;99658.58;130346;1267;108809;-78
2022/05/25 00:21:39;;;;;;;7.20;6.50;;;;;;;15.46;77.28;99664.35;130385;1268;108837;-78
2022/05/25 00:24:44;;;;;;;9.70;7.80;;;;;;;15.46;77.31;99667.66;130361;1267;108966;-78
2022/05/25 00:27:50;;;;;;;9.40;8.00;;;;;;;15.46;77.32;99660.84;130392;1268;108736;-78
2022/05/25 00:30:57;;;;;;;11.20;8.50;;;;;;;15.46;77.37;99659.60;130365;1267;108667;-81
2022/05/25 00:34:03;;;;;;;10.80;8.70;;;;;;;15.47;77.61;99658.93;130404;1268;108782;-81
2022/05/25 00:37:09;;;;;;;8.40;7.30;;;;;;;15.45;77.61;99656.53;130459;1268;108651;-81
2022/05/25 00:40:17;;;;;;;9.50;8.00;;;;;;;15.43;77.55;99652.13;130490;1267;108932;-79
2022/05/25 00:43:23;;;;;;;9.20;7.70;;;;;;;15.43;77.65;99656.94;130338;1268;108690;-79
2022/05/25 00:46:30;;;;;;;8.30;7.40;;;;;;;15.45;77.63;99661.58;130479;1267;108017;-81
2022/05/25 00:49:36;;;;;;;10.20;8.40;;;;;;;15.45;77.63;99667.23;130568;1267;107074;-81
2022/05/25 00:52:46;;;;;;;9.30;7.60;;;;;;;15.45;77.74;99664.43;130463;1267;106344;-81
2022/05/25 00:55:51;;;;;;;7.90;7.10;;;;;;;15.43;77.52;99663.67;130435;1267;108802;-81
2022/05/25 00:59:02;;;;;;;8.50;7.70;;;;;;;15.42;77.83;99662.59;130234;1268;290568;-81
2022/05/25 01:02:07;;;;;;;8.60;7.60;;;;;;;15.43;77.85;99665.91;130446;1268;108802;-79
2022/05/25 01:05:16;;;;;;;10.70;7.90;;;;;;;15.44;78.02;99665.92;130426;1267;108756;-81
2022/05/25 01:08:35;;;;;;;9.00;8.10;;;;;;;15.45;78.01;99668.52;130401;1268;108755;-79
2022/05/25 01:12:03;;;;;;;9.20;8.30;;;;;;;15.44;77.97;99671.83;130383;1267;108657;-81
2022/05/25 01:15:15;;;;;;;7.80;6.70;;;;;;;15.40;78.11;99671.89;130359;1265;108882;-79
2022/05/25 01:18:33;;;;;;;7.00;6.30;;;;;;;15.37;78.09;99676.02;130413;1267;108635;-81
2022/05/25 01:21:47;;;;;;;7.10;6.40;;;;;;;15.35;78.13;99678.73;130437;1267;108803;-81
2022/05/25 01:25:03;;;;;;;8.00;7.20;;;;;;;15.35;78.15;99679.14;130409;1267;109147;-81
2022/05/25 01:28:19;;;;;;;9.20;7.90;;;;;;;15.36;78.07;99681.64;130463;1268;108821;-81
2022/05/25 01:31:29;;;;;;;8.80;7.80;;;;;;;15.35;78.24;99682.02;130543;1267;109141;-81
2022/05/25 01:34:41;;;;;;;10.00;7.20;;;;;;;15.33;78.20;99670.27;130585;1268;108837;-81
2022/05/25 01:37:53;;;;;;;8.00;7.10;;;;;;;15.32;78.36;99669.98;130485;1268;108674;-81
2022/05/25 01:41:13;;;;;;;9.60;8.10;;;;;;;15.31;78.43;99664.52;130450;1267;108930;-79
2022/05/25 01:44:23;;;;;;;8.50;7.50;;;;;;;15.32;78.46;99667.88;130456;1267;108779;-81
2022/05/25 01:47:32;;;;;;;10.60;9.50;;;;;;;15.29;78.56;99672.83;130492;1267;108887;-81
2022/05/25 01:50:43;;;;;;;9.40;8.10;;;;;;;15.24;78.61;99678.14;130491;1267;108909;-81
2022/05/25 01:53:54;;;;;;;9.60;7.70;;;;;;;15.19;78.71;99681.56;130357;1267;108616;-81
2022/05/25 01:57:04;;;;;;;8.50;7.40;;;;;;;15.16;78.76;99688.00;130451;1267;108628;-81
2022/05/25 02:00:11;;;;;;;8.80;7.90;;;;;;;15.15;78.76;99690.11;130352;1268;108860;-79
2022/05/25 02:07:13;;;;;;;9.60;8.10;;;;;;;15.19;78.72;99696.24;130439;1268;108561;-81
2022/05/25 02:10:35;;;;;;;7.70;6.90;;;;;;;15.20;78.98;99699.89;130337;1268;108725;-77
2022/05/25 02:13:56;;;;;;;8.30;6.80;;;;;;;15.22;78.86;99700.61;130391;1267;108807;-80
2022/05/25 02:17:08;;;;;;;8.90;8.00;;;;;;;15.27;79.05;99703.11;130351;1268;107135;-81
2022/05/25 02:20:20;;;;;;;9.40;8.40;;;;;;;15.29;79.06;99706.89;130447;1267;108693;-80
2022/05/25 02:23:36;;;;;;;9.20;8.30;;;;;;;15.29;79.30;99709.55;130335;1268;108714;-81
2022/05/25 02:26:49;;;;;;;10.40;9.30;;;;;;;15.32;79.12;99706.50;130368;1268;108889;-77
2022/05/25 02:30:00;;;;;;;11.20;8.50;;;;;;;15.36;79.31;99710.23;130346;1268;108666;-76
2022/05/25 02:33:13;;;;;;;9.90;8.50;;;;;;;15.43;79.58;99713.55;130395;1268;108849;-79
2022/05/25 02:36:20;;;;;;;10.00;9.00;;;;;;;15.48;79.39;99715.11;130393;1267;108776;-80
2022/05/25 02:39:26;;;;;;;10.80;9.70;;;;;;;15.50;79.28;99715.91;130370;1267;108598;-79
2022/05/25 02:42:32;;;;;;;10.40;9.30;;;;;;;15.51;79.38;99717.02;130322;1268;108797;-79
2022/05/25 02:45:38;;;;;;;11.40;8.60;;;;;;;15.51;79.60;99718.20;130373;1268;108746;-80
2022/05/25 02:48:44;;;;;;;11.80;10.60;;;;;;;15.55;79.88;99719.17;130539;1267;108828;-81
2022/05/25 02:51:49;;;;;;;10.70;8.90;;;;;;;15.60;79.85;99715.31;130509;1268;106928;-79
2022/05/25 02:54:55;;;;;;;10.90;9.30;;;;;;;15.66;79.76;99719.21;130440;1268;108680;-79
2022/05/25 02:58:02;;;;;;;12.00;10.10;;;;;;;15.69;79.88;99719.36;130415;1268;108975;-79
2022/05/25 03:01:08;;;;;;;10.10;8.90;;;;;;;15.70;79.92;99716.44;130361;1267;106748;-77
2022/05/25 03:04:13;;;;;;;9.00;8.10;;;;;;;15.74;79.75;99713.98;130392;1267;108841;-77
2022/05/25 03:07:19;;;;;;;10.10;8.40;;;;;;;15.76;79.92;99716.36;130437;1267;108661;-77
2022/05/25 03:10:24;;;;;;;9.30;8.20;;;;;;;15.79;80.07;99716.88;130601;1267;109074;-78
2022/05/25 03:13:30;;;;;;;11.40;10.30;;;;;;;15.83;79.95;99716.48;130348;1267;108716;-75
2022/05/25 03:16:36;;;;;;;10.10;8.50;;;;;;;15.86;79.96;99718.39;130312;1267;108850;-78
2022/05/25 03:19:43;;;;;;;9.10;8.20;;;;;;;15.87;80.17;99715.00;130347;1268;108842;-77
2022/05/25 03:22:48;;;;;;;8.90;8.10;;;;;;;15.90;80.38;99716.29;130389;1267;109538;-77
2022/05/25 03:25:54;;;;;;;8.60;7.40;;;;;;;15.95;80.39;99722.16;130320;1268;108742;-78
2022/05/25 03:28:59;;;;;;;9.40;8.40;;;;;;;15.98;80.32;99726.38;130399;1268;108721;-78
2022/05/25 03:32:05;;;;;;;10.60;8.30;;;;;;;15.99;80.29;99726.92;130398;1267;108831;-76
2022/05/25 03:35:11;;;;;;;8.70;7.80;;;;;;;16.00;80.41;99729.91;130392;1268;108674;-76
2022/05/25 03:38:17;;;;;;;7.90;7.10;;;;;;;16.00;80.46;99731.08;130401;1268;108634;-75
2022/05/25 03:41:23;;;;;;;8.70;7.60;;;;;;;16.03;80.59;99728.73;130347;1268;108629;-77
2022/05/25 03:44:28;;;;;;;8.60;7.50;;;;;;;16.08;80.53;99732.59;130368;1267;108636;-75
2022/05/25 03:47:34;;;;;;;9.30;8.40;;;;;;;16.15;80.54;99740.36;130359;1268;108640;-75
2022/05/25 03:50:42;;;;;;;9.40;8.40;;;;;;;16.17;80.78;99740.08;130320;1268;108875;-75
2022/05/25 03:53:49;;;;;;;9.80;8.40;;;;;;;16.20;80.73;99741.99;130397;1267;108731;-77
2022/05/25 03:56:56;;;;;;;9.10;8.10;;;;;;;16.27;80.84;99746.56;130357;1268;108852;-77
2022/05/25 04:00:01;;;;;;;9.40;8.50;;;;;;;16.36;80.63;99750.56;130384;1268;108723;-77
2022/05/25 04:03:12;;;;;;;9.90;9.00;;;;;;;16.43;80.84;99751.69;130356;1268;108791;-77
2022/05/25 04:06:17;;;;;;;9.70;8.70;;;;;;;16.49;80.82;99747.78;130315;1267;108684;-77
2022/05/25 04:09:23;;;;;;;9.30;8.40;;;;;;;16.58;80.95;99751.03;130344;1267;109525;-77
2022/05/25 04:12:28;;;;;;;10.30;9.30;;;;;;;16.68;80.95;99755.14;130424;1267;108216;-77
2022/05/25 04:15:35;;;;;;;12.10;10.90;;;;;;;16.78;80.96;99754.08;130338;1268;108958;-75
2022/05/25 04:18:40;;;;;;;12.10;10.90;;;;;;;16.83;81.01;99753.56;130369;1267;108689;-76
2022/05/25 04:21:46;;;;;;;12.40;11.10;;;;;;;16.93;81.11;99751.92;130321;1268;107019;-76
2022/05/25 04:24:52;;;;;;;11.90;10.60;;;;;;;17.02;81.26;99753.50;130361;1268;109403;-76
2022/05/25 04:27:58;;;;;;;12.40;10.90;;;;;;;17.08;81.23;99757.15;130340;1268;108831;-76
2022/05/25 04:31:04;;;;;;;13.10;11.80;;;;;;;17.13;81.19;99766.83;130395;1268;108788;-76
2022/05/25 04:34:12;;;;;;;16.70;13.30;;;;;;;17.08;81.30;99769.05;130337;1267;108761;-75
2022/05/25 04:40:44;;;;;;;14.30;12.80;;;;;;;16.91;82.71;99765.64;130370;1268;108902;-76
2022/05/25 04:43:49;;;;;;;17.70;14.10;;;;;;;16.81;83.00;99764.08;130352;1268;108953;-76
2022/05/25 04:46:54;;;;;;;16.20;13.60;;;;;;;16.78;82.65;99763.70;130354;1267;108890;-75
2022/05/25 04:50:01;;;;;;;17.40;15.10;;;;;;;16.77;83.05;99764.40;130473;1267;108737;-77
2022/05/25 04:53:07;;;;;;;16.60;14.10;;;;;;;16.73;83.00;99761.86;130354;1268;108720;-78
2022/05/25 04:59:36;;;;;;;17.30;15.20;;;;;;;16.70;83.48;99764.80;130412;1268;108820;-76
2022/05/25 05:02:41;;;;;;;18.20;16.40;;;;;;;16.67;83.15;99764.42;130353;1267;108773;-75
2022/05/25 05:05:48;;;;;;;18.30;15.20;;;;;;;16.69;82.96;99760.65;130335;1268;107470;-75
2022/05/25 05:08:53;;;;;;;16.10;14.00;;;;;;;16.76;82.78;99757.76;130314;1268;108855;-79
2022/05/25 05:11:58;;;;;;;16.40;14.70;;;;;;;16.81;83.26;99762.05;130394;1268;108754;-77
2022/05/25 05:15:04;;;;;;;17.80;15.00;;;;;;;16.85;83.02;99758.80;130326;1267;107315;-77
2022/05/25 05:18:10;;;;;;;18.10;16.20;;;;;;;17.03;82.92;99754.70;130313;1268;108698;-77
2022/05/25 05:21:35;;;;;;;16.70;14.80;;;;;;;17.12;82.87;99758.14;130325;1268;108722;-76
2022/05/25 05:24:40;;;;;;;17.90;16.00;;;;;;;17.08;83.05;99765.60;130357;1267;108887;-74
2022/05/25 05:27:46;;;;;;;18.00;16.10;;;;;;;17.01;83.84;99767.72;130313;1267;108535;-75
2022/05/25 05:30:54;;;;;;;18.80;16.90;;;;;;;17.06;83.41;99770.34;130289;1268;108786;-75
2022/05/25 05:33:59;;;;;;;19.30;17.20;;;;;;;17.09;83.38;99774.18;130345;1268;108673;-75
2022/05/25 05:37:11;;;;;;;19.30;16.80;;;;;;;17.04;83.46;99774.69;130286;1267;109051;-75
2022/05/25 05:40:19;;;;;;;18.70;16.70;;;;;;;17.03;83.42;99772.77;130306;1268;109147;-75
2022/05/25 05:43:25;;;;;;;19.20;17.20;;;;;;;17.10;83.41;99767.47;130365;1267;108756;-76
2022/05/25 05:46:32;;;;;;;17.20;15.40;;;;;;;17.19;83.49;99760.38;130399;1267;108702;-77
2022/05/25 05:49:39;;;;;;;16.70;14.90;;;;;;;17.32;83.20;99766.21;130425;1268;108809;-74
2022/05/25 05:52:46;;;;;;;16.40;14.70;;;;;;;17.43;83.08;99767.69;130386;1267;108874;-74
2022/05/25 05:55:51;;;;;;;16.50;14.90;;;;;;;17.51;82.88;99770.46;130342;1268;108767;-73
2022/05/25 05:58:57;;;;;;;16.40;14.70;;;;;;;17.50;82.87;99769.92;130361;1267;108761;-73
2022/05/25 06:02:03;;;;;;;16.60;14.70;;;;;;;17.53;82.82;99767.20;130332;1268;108849;-73
2022/05/25 06:05:10;;;;;;;16.20;13.80;;;;;;;17.51;82.45;99767.38;130381;1268;108694;-73
2022/05/25 06:08:21;;;;;;;16.50;14.70;;;;;;;17.55;82.58;99771.13;130335;1268;108835;-73
2022/05/25 06:11:26;;;;;;;18.00;16.20;;;;;;;17.57;82.33;99774.92;130369;1268;108397;-73
2022/05/25 06:14:31;;;;;;;16.40;14.80;;;;;;;17.51;81.88;99777.68;130380;1268;109249;-75
2022/05/25 06:21:00;;;;;;;15.80;14.10;;;;;;;17.50;81.90;99790.13;130311;1268;109075;-73
2022/05/25 06:24:07;;;;;;;17.40;15.60;;;;;;;17.48;81.86;99795.15;130339;1268;108736;-73
2022/05/25 06:27:13;;;;;;;16.50;14.80;;;;;;;17.44;81.96;99794.04;130287;1268;108638;-73
2022/05/25 06:30:19;;;;;;;17.50;15.40;;;;;;;17.43;82.09;99794.21;130430;1268;108787;-73
2022/05/25 06:33:24;;;;;;;15.00;13.50;;;;;;;17.41;81.88;99791.88;130395;1268;108686;-75
2022/05/25 06:36:31;;;;;;;16.10;13.80;;;;;;;17.42;82.13;99793.67;130354;1267;108756;-75
2022/05/25 06:39:38;;;;;;;14.80;13.20;;;;;;;17.40;81.96;99790.39;130453;1268;108623;-75
2022/05/25 06:42:44;;;;;;;16.20;14.50;;;;;;;17.46;81.86;99792.08;130473;1268;108726;-75
2022/05/25 06:45:50;;;;;;;16.90;15.20;;;;;;;17.54;81.51;99786.42;130397;1268;107553;-75
2022/05/25 06:48:58;;;;;;;17.00;15.00;;;;;;;17.62;81.42;99783.25;130376;1268;108846;-75
2022/05/25 06:52:03;;;;;;;15.40;13.80;;;;;;;17.67;81.42;99781.00;130388;1268;108756;-75
2022/05/25 06:55:09;;;;;;;15.90;14.30;;;;;;;17.86;81.54;99781.80;130433;1268;108869;-75
2022/05/25 06:58:15;;;;;;;16.50;14.80;;;;;;;18.02;80.91;99785.21;130351;1268;108792;-75
2022/05/25 07:01:21;;;;;;;19.20;16.20;;;;;;;18.11;80.65;99787.21;130392;1268;109103;-75
2022/05/25 07:04:26;;;;;;;16.10;14.50;;;;;;;18.19;80.67;99785.06;130392;1268;108746;-75
2022/05/25 07:07:32;;;;;;;16.30;14.30;;;;;;;18.36;80.62;99789.25;130384;1268;108714;-75
2022/05/25 07:10:38;;;;;;;16.10;14.10;;;;;;;18.51;80.28;99791.23;130391;1268;108734;-75
2022/05/25 07:13:44;;;;;;;15.40;13.90;;;;;;;18.56;79.27;99792.98;130389;1268;108956;-75
2022/05/25 07:16:49;;;;;;;17.10;15.40;;;;;;;18.60;79.68;99789.30;130376;1268;107611;-75
2022/05/25 07:19:55;;;;;;;17.60;15.80;;;;;;;18.67;79.28;99791.45;130386;1268;108672;-75
2022/05/25 07:23:00;;;;;;;17.90;15.40;;;;;;;18.73;79.10;99794.29;130424;1268;108924;-75
2022/05/25 07:26:07;;;;;;;16.20;14.40;;;;;;;18.79;79.10;99799.81;130375;1268;108647;-74
2022/05/25 07:29:14;;;;;;;15.90;14.30;;;;;;;18.79;78.67;99810.98;130370;1268;108940;-74
2022/05/25 07:32:22;;;;;;;15.30;13.70;;;;;;;18.78;78.49;99814.92;130384;1267;108663;-74
2022/05/25 07:35:28;;;;;;;14.50;13.00;;;;;;;18.76;78.23;99819.02;130433;1268;108949;-75
2022/05/25 07:38:34;;;;;;;15.30;13.20;;;;;;;18.71;77.93;99815.88;130415;1268;108765;-75
2022/05/25 07:41:45;;;;;;;15.30;12.30;;;;;;;18.72;77.65;99826.23;130375;1267;108714;-74
2022/05/25 07:44:55;;;;;;;13.30;11.90;;;;;;;18.62;76.90;99826.95;130394;1268;108811;-74
2022/05/25 07:48:00;;;;;;;13.30;11.90;;;;;;;18.52;77.56;99829.55;130347;1268;108681;-75
2022/05/25 07:51:07;;;;;;;13.10;11.80;;;;;;;18.58;78.19;99831.96;130362;1268;108594;-74
2022/05/25 07:54:12;;;;;;;12.70;11.40;;;;;;;18.62;76.94;99843.06;130275;1268;108831;-75
2022/05/25 07:57:18;;;;;;;12.40;11.10;;;;;;;18.56;77.42;99843.52;130382;1268;108950;-75
2022/05/25 08:00:25;;;;;;;12.10;10.80;;;;;;;18.55;77.90;99845.73;130351;1267;107704;-74
2022/05/25 08:06:55;;;;;;;12.30;10.30;;;;;;;18.46;77.20;99856.34;130419;1268;108808;-75
2022/05/25 08:10:06;;;;;;;12.90;11.50;;;;;;;18.54;77.19;99859.24;130339;1268;108679;-75
2022/05/25 08:13:17;;;;;;;12.50;10.80;;;;;;;18.65;77.13;99863.77;130391;1268;108810;-75
2022/05/25 08:16:22;;;;;;;11.50;10.30;;;;;;;18.73;77.32;99865.35;130364;1268;108716;-74
2022/05/25 08:19:28;;;;;;;12.60;11.00;;;;;;;18.75;76.37;99866.51;130334;1268;108784;-75
2022/05/25 08:22:34;;;;;;;12.10;10.90;;;;;;;18.74;76.43;99867.17;130350;1268;108944;-75
2022/05/25 08:25:39;;;;;;;12.00;10.80;;;;;;;18.64;76.56;99868.76;130371;1268;107038;-75
2022/05/25 08:28:45;;;;;;;11.60;10.40;;;;;;;18.59;77.00;99879.34;130305;1268;108629;-74
2022/05/25 08:31:53;;;;;;;12.60;11.30;;;;;;;18.47;76.54;99886.25;130348;1268;108762;-74
2022/05/25 08:34:58;;;;;;;10.50;9.40;;;;;;;18.27;76.83;99891.94;130342;1268;108577;-75
2022/05/25 08:38:05;;;;;;;11.40;10.10;;;;;;;18.16;76.49;99897.41;130348;1268;108275;-75
2022/05/25 08:41:11;;;;;;;11.60;10.40;;;;;;;17.99;75.81;99899.02;130369;1267;108581;-74
2022/05/25 08:44:19;;;;;;;13.10;10.30;;;;;;;17.79;75.99;99903.51;130374;1267;107678;-74
2022/05/25 08:47:25;;;;;;;11.00;9.90;;;;;;;17.73;76.24;99909.73;130351;1268;107628;-75
2022/05/25 08:50:31;;;;;;;13.10;10.80;;;;;;;17.71;76.25;99909.07;130368;1268;110036;-74
2022/05/25 08:53:38;;;;;;;10.80;8.90;;;;;;;17.73;76.44;99913.39;130342;1268;108696;-74
2022/05/25 08:56:47;;;;;;;9.50;8.60;;;;;;;17.69;75.71;99912.05;130318;1268;108843;-74
2022/05/25 08:59:56;;;;;;;9.40;8.00;;;;;;;17.65;75.82;99911.89;130363;1268;108639;-74
2022/05/25 09:03:15;;;;;;;9.20;8.20;;;;;;;17.65;76.06;99916.62;130303;1268;108650;-74
2022/05/25 09:06:32;;;;;;;10.40;9.00;;;;;;;17.65;75.09;99920.91;130397;1268;108646;-74
2022/05/25 09:09:40;;;;;;;7.90;7.10;;;;;;;17.53;74.41;99921.23;130275;1268;108854;-75
2022/05/25 09:12:48;;;;;;;7.30;6.30;;;;;;;17.44;75.01;99923.09;130359;1268;109092;-74
2022/05/25 09:19:23;;;;;;;6.30;5.70;;;;;;;17.27;74.57;99936.00;130303;1268;108620;-74
2022/05/25 09:22:31;;;;;;;7.50;5.80;;;;;;;17.15;74.55;99935.61;130291;1268;109032;-74
2022/05/25 09:25:37;;;;;;;7.30;6.40;;;;;;;17.03;74.62;99934.46;130376;1268;108693;-74
2022/05/25 09:28:47;;;;;;;10.70;6.70;;;;;;;16.92;74.70;99938.70;130345;1268;108896;-74
2022/05/25 09:31:56;;;;;;;7.40;5.90;;;;;;;16.83;74.90;99940.56;130324;1267;108699;-74
2022/05/25 09:35:06;;;;;;;6.80;5.80;;;;;;;16.76;74.83;99945.61;130340;1268;108858;-74
2022/05/25 09:38:15;;;;;;;7.90;6.20;;;;;;;16.69;75.27;99949.85;130336;1268;108870;-74
2022/05/25 09:41:27;;;;;;;6.80;6.10;;;;;;;16.67;75.34;99954.70;130360;1268;108726;-75
2022/05/25 09:44:32;;;;;;;;;;;;;;;16.65;75.39;99959.91;130308;1268;108695;-74
2022/05/25 09:47:43;;;;;;;6.80;6.10;;;;;;;16.56;75.75;99973.38;130335;1268;108702;-75
2022/05/25 09:50:53;;;;;;;6.60;5.90;;;;;;;16.48;75.87;99978.23;130388;1268;108642;-74
2022/05/25 09:54:02;;;;;;;9.40;7.60;;;;;;;16.48;76.00;99978.27;130307;1268;108763;-74
2022/05/25 09:57:13;;;;;;;8.50;7.50;;;;;;;16.38;76.01;99981.98;130348;1268;108970;-74
2022/05/25 10:00:23;;;;;;;7.40;6.30;;;;;;;16.26;76.40;99980.25;130281;1268;108670;-74
2022/05/25 10:04:03;;;;;;;6.90;6.10;;;;;;;16.24;76.40;99986.96;130324;1268;108805;-74
2022/05/25 10:07:21;;;;;;;6.70;5.90;;;;;;;16.16;75.85;99984.48;130353;1268;108712;-74
2022/05/25 10:10:32;;;;;;;6.90;5.90;;;;;;;16.04;75.47;99990.18;130191;1268;108887;-74
2022/05/25 10:13:43;;;;;;;7.00;6.20;;;;;;;15.94;75.47;99992.72;130348;1268;108903;-74
2022/05/25 10:16:49;;;;;;;6.30;5.70;;;;;;;15.82;76.26;99989.72;130299;1268;108699;-75
2022/05/25 10:19:56;;;;;;;8.10;5.70;;;;;;;15.78;77.11;99984.22;130312;1268;108583;-74
2022/05/25 10:23:09;;;;;;;8.60;7.20;;;;;;;15.77;77.56;99992.61;130316;1268;108878;-74
2022/05/25 10:26:19;;;;;;;6.70;6.00;;;;;;;15.69;77.93;99991.90;130336;1268;108683;-74
2022/05/25 10:36:49;;;;;;;4.90;3.80;;;;;;;14.84;77.52;100020.48;130375;1267;108781;-74
2022/05/25 10:40:03;;;;;;;8.30;4.10;;;;;;;14.75;77.48;100024.28;130302;1268;108607;-74
2022/05/25 10:43:17;;;;;;;4.10;2.70;;;;;;;14.53;77.52;100018.97;130372;1268;108868;-74
2022/05/25 10:46:23;;;;;;;5.70;3.00;;;;;;;14.33;77.80;100009.41;130332;1268;108975;-74
2022/05/25 10:49:35;;;;;;;6.20;3.70;;;;;;;14.21;78.29;100008.15;130391;1268;108961;-74
2022/05/25 10:52:46;;;;;;;2.80;2.00;;;;;;;14.09;78.58;100016.64;130336;1267;108837;-74
2022/05/25 10:56:02;;;;;;;5.90;4.20;;;;;;;13.97;78.14;100019.00;130344;1268;108807;-74
2022/05/25 10:59:20;;;;;;;6.30;3.90;;;;;;;13.92;78.35;100014.61;130346;1268;108740;-74
2022/05/25 11:02:47;;;;;;;4.90;2.40;;;;;;;13.80;78.63;100004.23;130334;1268;108921;-74
2022/05/25 11:05:57;;;;;;;2.10;1.50;;;;;;;13.74;78.72;100006.11;130311;1268;108965;-74
2022/05/25 11:09:17;;;;;;;3.90;2.40;;;;;;;13.72;78.84;100009.79;130327;1268;109482;-74
2022/05/25 11:12:30;;;;;;;2.90;2.00;;;;;;;13.73;78.98;100010.17;130328;1268;108711;-74
2022/05/25 11:15:44;;;;;;;2.90;2.30;;;;;;;13.77;78.82;100018.30;130342;1268;107962;-74
2022/05/25 11:19:09;;;;;;;2.90;2.10;;;;;;;13.83;79.58;100019.66;130328;1268;107791;-74
2022/05/25 11:22:27;;;;;;;3.20;1.80;;;;;;;13.86;79.52;100028.31;130310;1268;108771;-74
2022/05/25 11:25:52;;;;;;;2.90;2.40;;;;;;;13.98;79.29;100034.33;130359;1268;108818;-74
2022/05/25 11:29:08;;;;;;;3.70;2.80;;;;;;;14.03;79.66;100038.13;130347;1268;108684;-74
2022/05/25 11:32:24;;;;;;;6.10;3.70;;;;;;;14.09;79.33;100033.11;130348;1268;108757;-74
2022/05/25 11:35:41;;;;;;;6.00;3.60;;;;;;;14.13;79.92;100029.23;130357;1267;108840;-74
2022/05/25 11:39:05;;;;;;;8.10;4.70;;;;;;;14.14;80.37;100019.69;130332;1267;108813;-74
2022/05/25 11:42:21;;;;;;;6.70;3.60;;;;;;;14.16;80.84;100019.96;130327;1268;108766;-74
2022/05/25 11:45:55;;;;;;;6.00;4.00;;;;;;;14.23;80.43;100012.77;130314;1268;108666;-74
2022/05/25 11:49:25;;;;;;;8.20;4.50;;;;;;;14.32;80.17;100020.83;130209;1268;108672;-74
2022/05/25 11:52:46;;;;;;;5.40;3.30;;;;;;;14.42;80.04;100032.16;130340;1268;108702;-74
2022/05/25 11:56:00;;;;;;;3.60;2.80;;;;;;;14.50;79.83;100033.82;130323;1268;109447;-75
2022/05/25 11:59:24;;;;;;;4.20;2.80;;;;;;;14.58;79.60;100035.77;130293;1268;108942;-74
2022/05/25 12:02:45;;;;;;;4.30;3.20;;;;;;;14.62;80.02;100029.60;130350;1268;108649;-74
2022/05/25 12:06:06;;;;;;;4.10;2.90;;;;;;;14.68;79.92;100019.77;130351;1268;108736;-74
2022/05/25 12:09:22;;;;;;;7.60;4.70;;;;;;;14.66;80.18;100010.69;130299;1268;108661;-74
2022/05/25 12:12:34;;;;;;;6.80;4.50;;;;;;;14.62;80.61;99999.48;130329;1268;108985;-74
2022/05/25 12:15:53;;;;;;;5.40;4.40;;;;;;;14.66;81.24;99985.85;130331;1268;108610;-74
2022/05/25 12:19:06;;;;;;;7.20;4.10;;;;;;;14.67;81.52;99988.40;130315;1268;108950;-74
2022/05/25 12:22:15;;;;;;;5.70;3.50;;;;;;;14.71;81.08;99980.64;130350;1267;108894;-74
2022/05/25 12:25:23;;;;;;;5.60;3.00;;;;;;;14.80;80.50;99986.92;130309;1267;108690;-74
2022/05/25 12:28:32;;;;;;;3.90;2.90;;;;;;;14.86;80.51;99993.59;130312;1268;108746;-74
2022/05/25 12:31:39;;;;;;;3.10;2.70;;;;;;;14.98;80.05;99993.95;130341;1267;107587;-74
2022/05/25 12:34:47;;;;;;;4.80;3.00;;;;;;;15.13;78.94;99993.10;130336;1268;108825;-74
2022/05/25 12:37:53;;;;;;;3.20;2.50;;;;;;;15.20;78.73;100002.81;130417;1268;109064;-73
2022/05/25 12:41:31;;;;;;;3.80;2.40;;;;;;;15.25;78.74;99998.95;130276;1268;108584;-74
2022/05/25 12:51:38;;;;;;;3.60;2.20;;;;;;;15.37;77.92;99999.81;130478;1268;108827;-74
2022/05/25 12:54:45;;;;;;;3.80;1.90;;;;;;;15.42;77.92;99992.09;130378;1267;108789;-76
2022/05/25 12:57:54;;;;;;;3.00;2.30;;;;;;;15.46;77.13;99990.48;130496;1268;108828;-74
2022/05/25 13:01:09;;;;;;;3.90;2.40;;;;;;;15.46;76.84;99989.57;130232;1268;210404;-77
2022/05/25 13:04:40;;;;;;;3.30;2.20;;;;;;;15.43;76.75;99986.14;130408;1268;108699;-79
2022/05/25 13:07:48;;;;;;;2.30;1.80;;;;;;;15.41;76.66;99989.10;130567;1267;108668;-73
2022/05/25 13:11:03;;;;;;;2.70;2.00;;;;;;;15.51;76.08;99988.05;130700;1268;108832;-74
2022/05/25 13:14:46;;;;;;;3.00;2.00;;;;;;;15.75;76.96;99984.59;130476;1268;108932;-76
2022/05/25 13:17:53;;;;;;;2.50;1.80;;;;;;;16.03;75.52;99979.08;130455;1268;109458;-72
2022/05/25 13:21:03;;;;;;;2.80;2.20;;;;;;;16.19;74.96;99975.93;130491;1268;108775;-72
2022/05/25 13:24:28;;;;;;;4.60;2.50;;;;;;;16.32;74.83;99981.98;130373;1268;109134;-72
2022/05/25 13:27:58;;;;;;;2.50;2.00;;;;;;;16.33;73.19;99986.58;130402;1268;108937;-72
2022/05/25 13:31:37;;;;;;;3.10;2.30;;;;;;;16.37;74.58;99988.35;130393;1268;108828;-72
2022/05/25 13:34:43;;;;;;;3.20;2.40;;;;;;;16.35;74.15;99987.34;130332;1273;108832;-75
2022/05/25 13:37:50;;;;;;;3.10;2.10;;;;;;;16.25;74.38;99988.85;129961;1272;108867;-73
2022/05/25 13:41:02;;;;;;;4.20;2.90;;;;;;;16.17;74.28;99988.75;129959;1274;108988;-74
2022/05/25 13:44:09;;;;;;;;;;;;;;;16.12;73.86;99990.75;129993;1273;108729;-74
2022/05/25 13:47:21;;;;;;;3.10;2.40;;;;;;;16.02;73.67;99991.75;130016;1273;108688;-77
2022/05/25 13:50:33;;;;;;;;;;;;;;;15.93;73.61;99998.09;130007;1272;109117;-76
2022/05/25 13:53:39;;;;;;;3.90;2.20;;;;;;;15.83;73.56;99995.89;130210;1268;108693;-74
2022/05/25 13:56:46;;;;;;;3.10;2.70;;;;;;;15.73;73.55;99992.70;130476;1268;108761;-74
2022/05/25 13:59:52;;;;;;;4.10;2.60;;;;;;;15.59;73.83;99991.73;130397;1266;108928;-71
2022/05/25 14:03:01;;;;;;;3.50;2.70;;;;;;;15.47;74.30;99987.80;130366;1266;108723;-75
2022/05/25 14:06:08;;;;;;;3.70;2.80;;;;;;;15.46;74.76;99990.34;130416;1268;108701;-73
2022/05/25 14:12:37;;;;;;;4.90;4.30;;;;;;;15.45;75.02;99998.86;130375;1268;108782;-75
2022/05/25 14:15:44;;;;;;;6.60;4.90;;;;;;;15.47;74.88;99995.33;130371;1268;108697;-74
2022/05/25 14:18:52;;;;;;;8.00;4.80;;;;;;;15.44;74.83;99989.00;130478;1268;108706;-75
2022/05/25 14:22:01;;;;;;;7.60;5.50;;;;;;;15.40;74.98;99987.85;130483;1268;109470;-76
2022/05/25 14:25:19;;;;;;;8.10;5.50;;;;;;;15.44;74.99;99986.06;130427;1266;108568;-76
2022/05/25 14:28:32;;;;;;;29.40;22.80;;;;;;;15.50;75.33;99988.66;130397;1268;108815;-75
2022/05/25 14:31:44;;;;;;;57.10;42.70;;;;;;;15.62;75.75;99997.79;130430;1268;108783;-76
2022/05/25 14:34:51;;;;;;;17.30;12.50;;;;;;;15.73;75.41;99997.17;130558;1268;108807;-76
2022/05/25 14:37:59;;;;;;;8.80;6.90;;;;;;;15.78;75.33;99998.41;130539;1268;108787;-75
2022/05/25 14:41:23;;;;;;;7.60;5.90;;;;;;;15.83;75.46;100001.45;130489;1266;108665;-74
2022/05/25 14:44:41;;;;;;;7.70;5.50;;;;;;;15.95;75.53;100003.23;130669;1266;108681;-74
2022/05/25 14:47:49;;;;;;;6.50;5.00;;;;;;;15.99;75.57;100014.57;131645;1266;108724;-71
2022/05/25 14:51:01;;;;;;;7.10;6.30;;;;;;;16.05;75.74;100018.92;132055;1268;108266;-74
2022/05/25 14:54:10;;;;;;;;;;;;;;;16.12;75.71;100016.50;130545;1268;109708;-76
2022/05/25 14:57:19;;;;;;;13.40;10.70;;;;;;;16.19;75.98;100012.00;130446;1266;108943;-74
2022/05/25 15:00:24;;;;;;;11.50;9.10;;;;;;;16.24;75.95;100016.36;130316;1268;108941;-73
2022/05/25 15:03:37;;;;;;;10.50;8.60;;;;;;;16.30;75.96;100019.08;130426;1268;108949;-72
2022/05/25 15:06:59;;;;;;;11.90;8.70;;;;;;;16.33;75.84;100022.13;130369;1267;108895;-74